Eppley Airfield
KOMA : now visible

Airfield :











YOU CAN JOIN US ON...

 
LOGIN :

Register | Disclaimer

   EN    FR    IT 

 









Legend :    VFR   Marginal VFR   IFR   Intensive IFR   Very Intensive IFR
Visi :
Ceiling :
>= 8 km
>= 3000ft
5 to 8 km
1000 to 3000 ft
1500m to 5 km
500 to 1000 ft
800 to 1500m
200 to 500 ft
< 800m
< 200 ft
Symbols :   Thunderstorms  Fog  Heavy snow  Heavy precipitations  Wind > 20 kt






- Airport Elevation : 984 ft
- IATA code : OMA


KOMA - Eppley

CURRENT METAR :
  • 061452Z 02006KT 10SM SCT015 M04/M08 A3042 RMK AO2 SLP312 T10441083 51022

EXPIRED METARs :
  • 061352Z 01008KT 10SM FEW015 M06/M09 A3040 RMK AO2 SLP305 T10561089
  • 061252Z 01010KT 10SM FEW017 M04/M08 A3038 RMK AO2 SLP296 T10441078

TAF KOMA
Valid from the 06 at 15:00 until the 07 at 12:00 UTC


061503Z 0615/0712 01010KT P6SM SCT015
FM061900 02010KT P6SM SCT020
FM062300 15006KT P6SM FEW250



MET'MAP, your aeronautical weather chart ! - Copyright ORBIFLY December 2007 - Disclaimer

ORBIFLY MET'MAP TEAM :

Programming & Development : Alexandra Zaïnal
Concept & original design : Baudouin d'Aumeries
Assistance for programming : Marc-Olivier Méhu
Technical & hardware support : Manuel Goepfert

Contact : metmap@orbifly.com




SOURCES & CREDITS :

   NOAA       Earth
Advisory